createdAt,value
2023-03-15T00:01:18.896Z,5.80
2023-03-15T00:03:48.942Z,5.80
2023-03-15T00:06:18.414Z,5.90
2023-03-15T00:08:48.156Z,5.90
2023-03-15T00:11:25.611Z,5.90
2023-03-15T00:13:56.574Z,5.90
2023-03-15T00:16:27.354Z,5.90
2023-03-15T00:19:13.578Z,5.90
2023-03-15T00:21:44.008Z,5.90
2023-03-15T00:24:12.908Z,5.90
2023-03-15T00:26:43.411Z,5.80
2023-03-15T00:29:12.185Z,5.80
2023-03-15T00:31:55.372Z,5.70
2023-03-15T00:37:20.820Z,5.70
2023-03-15T00:39:50.312Z,5.10
2023-03-15T00:42:20.591Z,4.60
2023-03-15T00:44:51.531Z,4.20
2023-03-15T00:47:22.175Z,3.90
2023-03-15T00:49:52.273Z,3.70
2023-03-15T00:52:22.289Z,3.60
2023-03-15T00:54:53.971Z,3.50
2023-03-15T00:57:28.792Z,3.40
2023-03-15T00:59:57.687Z,3.30
2023-03-15T01:02:26.818Z,3.20
2023-03-15T01:04:55.750Z,3.30
2023-03-15T01:07:24.654Z,3.20
2023-03-15T01:09:53.840Z,3.30
2023-03-15T01:12:22.555Z,3.30
2023-03-15T01:14:57.401Z,3.30
2023-03-15T01:17:27.044Z,3.30
2023-03-15T01:19:55.857Z,3.30
2023-03-15T01:22:26.078Z,3.30
2023-03-15T01:24:55.498Z,3.30
2023-03-15T01:27:24.903Z,3.10
2023-03-15T01:29:56.015Z,2.80
2023-03-15T01:32:27.114Z,2.70
2023-03-15T01:34:56.415Z,2.80
2023-03-15T01:37:26.899Z,2.70
2023-03-15T01:39:56.808Z,2.60
2023-03-15T01:42:26.173Z,2.60
2023-03-15T01:45:00.986Z,2.60
2023-03-15T01:47:30.164Z,2.60
2023-03-15T01:50:04.271Z,2.70
2023-03-15T01:52:38.249Z,2.70
2023-03-15T01:55:11.495Z,2.80
2023-03-15T01:57:44.145Z,2.90
2023-03-15T02:00:25.706Z,3.00
2023-03-15T02:02:59.943Z,3.00
2023-03-15T02:05:35.157Z,3.20
2023-03-15T02:08:05.438Z,3.20
2023-03-15T02:10:40.260Z,3.30
2023-03-15T02:13:09.754Z,3.40
2023-03-15T02:15:47.423Z,3.40
2023-03-15T02:18:16.709Z,3.50
2023-03-15T02:20:58.046Z,3.50
2023-03-15T02:23:28.137Z,3.60
2023-03-15T02:26:07.722Z,3.60
2023-03-15T02:28:38.101Z,3.60
2023-03-15T02:31:07.810Z,3.70
2023-03-15T02:33:42.507Z,3.70
2023-03-15T02:36:16.873Z,3.70
2023-03-15T02:38:45.753Z,3.70
2023-03-15T02:41:22.594Z,3.60
2023-03-15T02:44:02.951Z,3.50
2023-03-15T02:46:31.896Z,3.40
2023-03-15T02:49:01.554Z,3.50
2023-03-15T02:51:32.466Z,3.40
2023-03-15T02:54:01.189Z,3.40
2023-03-15T02:56:34.065Z,3.40
2023-03-15T02:59:04.185Z,3.30
2023-03-15T03:01:33.408Z,3.40
2023-03-15T03:04:01.865Z,3.40
2023-03-15T03:06:32.180Z,3.40
2023-03-15T03:09:04.985Z,3.40
2023-03-15T03:11:34.382Z,3.40
2023-03-15T03:14:04.952Z,3.40
2023-03-15T03:16:33.953Z,3.30
2023-03-15T03:19:02.708Z,3.30
2023-03-15T03:21:32.120Z,3.20
2023-03-15T03:24:00.835Z,3.20
2023-03-15T03:26:32.946Z,3.20
2023-03-15T03:29:02.319Z,3.20
2023-03-15T03:31:34.998Z,3.20
2023-03-15T03:34:05.299Z,3.20
2023-03-15T03:36:35.778Z,3.20
2023-03-15T03:39:05.150Z,3.20
2023-03-15T03:41:33.921Z,3.20
2023-03-15T03:44:04.005Z,3.20
2023-03-15T03:46:34.539Z,3.20
2023-03-15T03:49:03.290Z,3.30
2023-03-15T03:51:34.317Z,3.30
2023-03-15T03:54:03.318Z,3.30
2023-03-15T03:56:32.366Z,3.40
2023-03-15T03:59:01.318Z,3.40
2023-03-15T04:01:30.192Z,3.40
2023-03-15T04:04:00.474Z,3.40
2023-03-15T04:06:28.875Z,3.40
2023-03-15T04:08:59.713Z,3.40
2023-03-15T04:11:28.813Z,3.40
2023-03-15T04:14:03.770Z,3.40
2023-03-15T04:16:34.798Z,3.30
2023-03-15T04:19:05.511Z,3.40
2023-03-15T04:21:35.422Z,3.40
2023-03-15T04:24:04.520Z,3.40
2023-03-15T04:26:34.842Z,3.30
2023-03-15T04:29:04.465Z,3.30
2023-03-15T04:31:38.696Z,3.30
2023-03-15T04:34:09.195Z,3.30
2023-03-15T04:36:38.167Z,3.30
2023-03-15T04:39:09.996Z,3.20
2023-03-15T04:41:39.565Z,3.20
2023-03-15T04:44:09.056Z,3.20
2023-03-15T04:46:38.076Z,3.20
2023-03-15T04:49:08.375Z,3.20
2023-03-15T04:51:36.800Z,3.20
2023-03-15T04:54:05.552Z,3.10
2023-03-15T04:56:39.201Z,3.10
2023-03-15T04:59:11.119Z,3.10
2023-03-15T05:01:41.548Z,3.00
2023-03-15T05:04:12.159Z,3.00
2023-03-15T05:06:41.986Z,3.00
2023-03-15T05:09:18.457Z,2.90
2023-03-15T05:11:51.364Z,2.90
2023-03-15T05:14:19.856Z,2.80
2023-03-15T05:16:55.404Z,2.80
2023-03-15T05:19:29.007Z,2.70
2023-03-15T05:22:04.855Z,2.60
2023-03-15T05:24:33.905Z,2.60
2023-03-15T05:27:03.823Z,2.50
2023-03-15T05:29:33.525Z,2.50
2023-03-15T05:32:07.869Z,2.50
2023-03-15T05:34:39.320Z,2.50
2023-03-15T05:37:10.056Z,2.40
2023-03-15T05:39:43.006Z,2.40
2023-03-15T05:42:12.618Z,2.40
2023-03-15T05:44:41.694Z,2.40
2023-03-15T05:47:12.989Z,2.50
2023-03-15T05:49:44.478Z,2.50
2023-03-15T05:52:14.837Z,2.50
2023-03-15T05:54:43.735Z,2.60
2023-03-15T05:57:12.649Z,2.60
2023-03-15T05:59:45.140Z,2.70
2023-03-15T06:02:21.832Z,2.80
2023-03-15T06:04:52.441Z,2.80
2023-03-15T06:07:22.314Z,2.80
2023-03-15T06:09:52.317Z,2.80
2023-03-15T06:12:22.019Z,2.80
2023-03-15T06:14:51.009Z,2.80
2023-03-15T06:17:19.734Z,2.80
2023-03-15T06:19:51.749Z,2.70
2023-03-15T06:22:20.863Z,2.70
2023-03-15T06:24:49.903Z,2.70
2023-03-15T06:27:22.374Z,2.70
2023-03-15T06:29:51.825Z,2.60
2023-03-15T06:32:20.512Z,2.60
2023-03-15T06:34:50.634Z,2.50
2023-03-15T06:37:28.875Z,2.50
2023-03-15T06:40:04.392Z,2.50
2023-03-15T06:42:33.115Z,2.60
2023-03-15T06:45:02.315Z,2.60
2023-03-15T06:47:31.499Z,2.70
2023-03-15T06:50:01.447Z,3.20
2023-03-15T06:52:30.908Z,3.80
2023-03-15T06:54:59.365Z,4.20
2023-03-15T06:57:30.262Z,4.30
2023-03-15T06:59:59.326Z,4.30
2023-03-15T07:02:28.047Z,4.40
2023-03-15T07:04:57.818Z,4.30
2023-03-15T07:07:28.323Z,4.40
2023-03-15T07:09:59.525Z,4.80
2023-03-15T07:12:29.184Z,6.30
2023-03-15T07:14:57.864Z,8.00
2023-03-15T07:17:29.007Z,9.40
2023-03-15T07:19:57.424Z,10.60
2023-03-15T07:22:28.218Z,11.80
2023-03-15T07:24:57.460Z,12.70
2023-03-15T07:27:26.619Z,13.50
2023-03-15T07:29:58.746Z,13.20
2023-03-15T07:32:27.534Z,13.20
2023-03-15T07:35:00.767Z,13.70
2023-03-15T07:37:31.905Z,13.70
2023-03-15T07:40:10.112Z,13.20
2023-03-15T07:42:40.071Z,13.70
2023-03-15T07:45:10.580Z,14.70
2023-03-15T07:47:41.286Z,15.00
2023-03-15T07:50:14.548Z,14.70
2023-03-15T07:52:47.155Z,15.30
2023-03-15T07:55:15.895Z,15.90
2023-03-15T07:57:44.748Z,16.70
2023-03-15T08:00:14.847Z,17.70
2023-03-15T08:02:43.281Z,18.50
2023-03-15T08:05:15.634Z,19.30
2023-03-15T08:07:46.448Z,19.50
2023-03-15T08:10:16.149Z,19.90
2023-03-15T08:12:45.025Z,19.60
2023-03-15T08:15:17.602Z,19.50
2023-03-15T08:17:48.257Z,19.50
2023-03-15T08:20:19.515Z,19.80
2023-03-15T08:22:51.877Z,19.30
2023-03-15T08:25:24.467Z,19.20
2023-03-15T08:27:53.726Z,19.50
2023-03-15T08:30:23.334Z,19.70
2023-03-15T08:32:52.900Z,19.70
2023-03-15T08:35:23.610Z,18.50
2023-03-15T08:37:59.039Z,16.90
2023-03-15T08:40:27.608Z,17.10
2023-03-15T08:43:04.690Z,16.80
2023-03-15T08:45:51.024Z,16.60
2023-03-15T08:48:22.678Z,16.40
2023-03-15T08:50:51.748Z,15.70
2023-03-15T08:53:22.966Z,15.30
2023-03-15T08:55:51.793Z,14.90
2023-03-15T08:58:20.349Z,15.00
2023-03-15T09:00:51.608Z,15.70
2023-03-15T09:03:35.661Z,15.90
2023-03-15T09:06:04.439Z,15.90
2023-03-15T09:08:36.079Z,16.00
2023-03-15T09:11:05.995Z,15.80
2023-03-15T09:13:37.442Z,15.70
2023-03-15T09:16:06.460Z,16.70
2023-03-15T09:18:35.752Z,17.30
2023-03-15T09:21:04.533Z,16.80
2023-03-15T09:23:36.309Z,16.70
2023-03-15T09:26:05.806Z,16.80
2023-03-15T09:28:34.501Z,15.40
2023-03-15T09:31:08.858Z,15.80
2023-03-15T09:33:37.793Z,16.50
2023-03-15T09:36:07.587Z,16.20
2023-03-15T09:38:40.184Z,16.80
2023-03-15T09:41:17.756Z,17.60
2023-03-15T09:43:59.253Z,17.90
2023-03-15T09:46:30.869Z,17.70
2023-03-15T09:49:06.990Z,16.80
2023-03-15T09:51:41.634Z,16.70
2023-03-15T09:54:14.291Z,15.30
2023-03-15T09:56:52.360Z,14.60
2023-03-15T09:59:23.298Z,13.90
2023-03-15T10:01:54.650Z,13.20
2023-03-15T10:04:31.326Z,12.70
2023-03-15T10:07:02.167Z,13.50
2023-03-15T10:09:34.760Z,13.90
2023-03-15T10:12:06.819Z,13.20
2023-03-15T10:14:53.097Z,12.60
2023-03-15T10:17:31.403Z,12.20
2023-03-15T10:20:06.875Z,11.90
2023-03-15T10:22:42.397Z,11.40
2023-03-15T10:25:18.398Z,12.30
2023-03-15T10:27:51.847Z,14.00
2023-03-15T10:30:23.028Z,15.40
2023-03-15T10:32:57.285Z,15.70
2023-03-15T10:35:26.407Z,15.50
2023-03-15T10:37:55.630Z,15.00
2023-03-15T10:40:46.527Z,14.90
2023-03-15T10:43:26.253Z,14.60
2023-03-15T10:46:03.728Z,14.20
2023-03-15T10:48:34.241Z,14.50
2023-03-15T10:51:06.406Z,15.80
2023-03-15T10:53:35.589Z,17.20
2023-03-15T10:56:09.024Z,18.90
2023-03-15T10:59:02.307Z,20.70
2023-03-15T11:01:37.790Z,21.80
2023-03-15T11:04:17.098Z,23.60
2023-03-15T11:06:49.362Z,25.20
2023-03-15T11:09:19.687Z,25.40
2023-03-15T11:12:02.097Z,24.30
2023-03-15T11:14:37.131Z,23.70
2023-03-15T11:17:08.284Z,23.70
2023-03-15T11:19:43.336Z,23.90
2023-03-15T11:22:15.776Z,25.00
2023-03-15T11:24:45.237Z,25.70
2023-03-15T11:27:18.497Z,26.40
2023-03-15T11:29:52.867Z,27.30
2023-03-15T11:32:24.508Z,28.20
2023-03-15T11:35:01.398Z,29.00
2023-03-15T11:37:35.001Z,27.70
2023-03-15T11:40:15.560Z,26.30
2023-03-15T11:42:52.843Z,24.80
2023-03-15T11:45:28.675Z,23.50
2023-03-15T11:48:01.184Z,23.30
2023-03-15T11:50:30.194Z,23.30
2023-03-15T11:53:03.718Z,24.20
2023-03-15T11:55:44.652Z,24.30
2023-03-15T11:58:34.851Z,25.20
2023-03-15T12:01:05.049Z,25.20
2023-03-15T12:03:41.021Z,24.40
2023-03-15T12:06:48.425Z,23.80
2023-03-15T12:09:52.310Z,22.70
2023-03-15T12:12:42.699Z,21.50
2023-03-15T12:15:48.904Z,21.90
2023-03-15T12:18:27.317Z,21.40
2023-03-15T12:21:12.562Z,21.20
2023-03-15T12:23:48.858Z,21.00
2023-03-15T12:26:27.548Z,20.30
2023-03-15T12:29:08.916Z,20.10
2023-03-15T12:31:59.408Z,20.60
2023-03-15T12:34:39.050Z,21.10
2023-03-15T12:37:11.257Z,21.90
2023-03-15T12:39:46.475Z,22.60
2023-03-15T12:42:35.211Z,22.40
2023-03-15T12:45:39.369Z,22.20
2023-03-15T12:48:28.491Z,21.90
2023-03-15T12:51:02.092Z,21.70
2023-03-15T12:53:53.672Z,21.10
2023-03-15T12:56:32.864Z,20.60
2023-03-15T12:59:09.132Z,19.80
2023-03-15T13:01:38.183Z,19.10
2023-03-15T13:04:07.091Z,18.30
2023-03-15T13:07:05.548Z,17.70
2023-03-15T13:09:57.757Z,17.20
2023-03-15T13:12:32.227Z,17.80
2023-03-15T13:15:07.755Z,18.80
2023-03-15T13:17:43.526Z,19.90
2023-03-15T13:20:23.294Z,20.90
2023-03-15T13:23:06.336Z,21.40
2023-03-15T13:25:40.097Z,21.70
2023-03-15T13:28:19.129Z,22.10
2023-03-15T13:30:52.833Z,22.40
2023-03-15T13:33:24.707Z,21.80
2023-03-15T13:36:01.620Z,21.10
2023-03-15T13:38:34.457Z,20.90
2023-03-15T13:41:05.214Z,21.20
2023-03-15T13:43:37.078Z,21.40
2023-03-15T13:46:06.845Z,21.00
2023-03-15T13:48:38.373Z,20.80
2023-03-15T13:51:11.097Z,19.60
2023-03-15T13:53:49.986Z,19.30
2023-03-15T13:56:21.724Z,18.20
2023-03-15T13:58:50.383Z,17.90
2023-03-15T14:01:19.832Z,18.20
2023-03-15T14:03:54.276Z,18.70
2023-03-15T14:06:25.656Z,18.90
2023-03-15T14:08:57.073Z,18.70
2023-03-15T14:11:38.479Z,18.50
2023-03-15T14:14:31.109Z,19.10
2023-03-15T14:17:05.953Z,19.50
2023-03-15T14:19:36.374Z,19.00
2023-03-15T14:22:15.554Z,19.10
2023-03-15T14:24:48.655Z,19.00
2023-03-15T14:27:22.645Z,18.40
2023-03-15T14:29:55.625Z,18.00
2023-03-15T14:32:30.568Z,17.70
2023-03-15T14:35:03.550Z,17.40
2023-03-15T14:37:38.170Z,16.90
2023-03-15T14:40:21.199Z,16.40
2023-03-15T14:42:53.668Z,16.20
2023-03-15T14:45:25.441Z,15.90
2023-03-15T14:47:57.791Z,15.90
2023-03-15T14:50:29.825Z,16.50
2023-03-15T14:53:00.067Z,17.40
2023-03-15T14:55:35.062Z,17.90
2023-03-15T14:58:04.711Z,17.90
2023-03-15T15:00:35.174Z,17.70
2023-03-15T15:03:06.036Z,17.40
2023-03-15T15:05:37.125Z,17.00
2023-03-15T15:08:11.021Z,16.60
2023-03-15T15:10:42.133Z,16.30
2023-03-15T15:13:20.873Z,15.80
2023-03-15T15:15:55.635Z,15.40
2023-03-15T15:18:26.412Z,15.30
2023-03-15T15:20:56.666Z,15.20
2023-03-15T15:23:28.143Z,15.20
2023-03-15T15:25:59.902Z,15.20
2023-03-15T15:28:35.961Z,15.20
2023-03-15T15:31:09.901Z,15.00
2023-03-15T15:33:40.380Z,14.80
2023-03-15T15:36:15.554Z,14.60
2023-03-15T15:38:44.395Z,14.40
2023-03-15T15:41:17.850Z,14.20
2023-03-15T15:43:49.503Z,13.90
2023-03-15T15:46:18.353Z,13.80
2023-03-15T15:48:50.295Z,13.60
2023-03-15T15:51:27.644Z,13.70
2023-03-15T15:53:58.711Z,13.80
2023-03-15T15:56:34.865Z,13.70
2023-03-15T15:59:05.555Z,13.50
2023-03-15T16:01:36.594Z,13.40
2023-03-15T16:04:10.572Z,13.30
2023-03-15T16:06:39.620Z,13.10
2023-03-15T16:09:11.187Z,12.90
2023-03-15T16:11:51.137Z,12.70
2023-03-15T16:14:20.209Z,12.40
2023-03-15T16:16:50.996Z,12.20
2023-03-15T16:19:21.834Z,12.10
2023-03-15T16:21:54.609Z,12.00
2023-03-15T16:24:27.590Z,12.00
2023-03-15T16:27:02.794Z,12.00
2023-03-15T16:29:38.263Z,11.90
2023-03-15T16:32:18.041Z,11.80
2023-03-15T16:34:50.625Z,11.80
2023-03-15T16:37:24.085Z,11.80
2023-03-15T16:39:55.910Z,11.70
2023-03-15T16:42:26.972Z,11.70
2023-03-15T16:44:56.038Z,11.60
2023-03-15T16:47:24.727Z,11.50
2023-03-15T16:49:54.846Z,11.40
2023-03-15T16:52:23.391Z,11.20
2023-03-15T16:54:52.136Z,11.00
2023-03-15T16:57:25.839Z,10.90
2023-03-15T16:59:56.178Z,10.70
2023-03-15T17:02:26.576Z,10.50
2023-03-15T17:04:55.278Z,10.40
2023-03-15T17:07:27.945Z,10.20
2023-03-15T17:09:57.634Z,10.00
2023-03-15T17:12:28.331Z,9.80
2023-03-15T17:15:01.193Z,9.60
2023-03-15T17:17:34.245Z,9.40
2023-03-15T17:20:06.527Z,9.20
2023-03-15T17:22:35.828Z,9.10
2023-03-15T17:25:04.903Z,8.90
2023-03-15T17:27:36.808Z,8.80
2023-03-15T17:30:16.918Z,8.70
2023-03-15T17:32:49.048Z,8.60
2023-03-15T17:35:19.541Z,8.40
2023-03-15T17:37:48.933Z,8.30
2023-03-15T17:40:24.094Z,8.20
2023-03-15T17:42:54.063Z,8.10
2023-03-15T17:45:26.596Z,8.00
2023-03-15T17:47:56.422Z,7.80
2023-03-15T17:50:26.959Z,7.80
2023-03-15T17:52:58.422Z,7.70
2023-03-15T17:55:27.662Z,7.60
2023-03-15T17:57:56.656Z,7.60
2023-03-15T18:00:32.724Z,7.50
2023-03-15T18:03:02.959Z,7.40
2023-03-15T18:05:32.955Z,7.30
2023-03-15T18:08:04.265Z,7.20
2023-03-15T18:10:36.957Z,7.10
2023-03-15T18:13:06.539Z,7.00
2023-03-15T18:15:37.176Z,7.00
2023-03-15T18:18:06.745Z,6.90
2023-03-15T18:20:35.187Z,6.90
2023-03-15T18:23:04.606Z,6.90
2023-03-15T18:25:35.988Z,6.80
2023-03-15T18:28:05.086Z,6.80
2023-03-15T18:30:34.307Z,6.80
2023-03-15T18:33:05.964Z,6.70
2023-03-15T18:35:35.143Z,6.70
2023-03-15T18:38:04.301Z,6.60
2023-03-15T18:40:35.009Z,6.60
2023-03-15T18:43:05.658Z,6.60
2023-03-15T18:45:39.224Z,6.50
2023-03-15T18:48:11.088Z,6.30
2023-03-15T18:50:39.460Z,6.40
2023-03-15T18:53:08.142Z,6.40
2023-03-15T18:55:36.872Z,6.40
2023-03-15T18:58:09.295Z,6.20
2023-03-15T19:00:39.218Z,6.20
2023-03-15T19:03:12.230Z,6.10
2023-03-15T19:05:42.412Z,6.00
2023-03-15T19:08:11.122Z,5.80
2023-03-15T19:10:42.558Z,5.80
2023-03-15T19:13:11.550Z,5.70
2023-03-15T19:15:40.383Z,5.70
2023-03-15T19:18:11.440Z,5.60
2023-03-15T19:20:39.870Z,5.60
2023-03-15T19:23:08.739Z,5.60
2023-03-15T19:25:37.467Z,5.60
2023-03-15T19:28:06.851Z,5.50
2023-03-15T19:30:35.571Z,5.50
2023-03-15T19:33:04.356Z,5.50
2023-03-15T19:35:34.796Z,5.50
2023-03-15T19:38:04.263Z,5.40
2023-03-15T19:40:33.263Z,5.20
2023-03-15T19:43:02.154Z,5.10
2023-03-15T19:45:31.210Z,5.10
2023-03-15T19:47:59.954Z,5.00
2023-03-15T19:50:32.034Z,5.00
2023-03-15T19:53:02.287Z,5.00
2023-03-15T19:55:31.852Z,5.00
2023-03-15T19:58:00.718Z,5.00
2023-03-15T20:00:30.343Z,4.90
2023-03-15T20:03:06.900Z,4.80
2023-03-15T20:05:37.290Z,4.80
2023-03-15T20:08:08.622Z,4.80
2023-03-15T20:10:39.204Z,4.70
2023-03-15T20:13:10.418Z,4.70
2023-03-15T20:15:39.578Z,4.60
2023-03-15T20:18:10.761Z,4.60
2023-03-15T20:20:40.344Z,4.50
2023-03-15T20:23:10.569Z,4.50
2023-03-15T20:25:39.564Z,4.40
2023-03-15T20:28:08.095Z,4.40
2023-03-15T20:30:42.285Z,4.40
2023-03-15T20:33:12.413Z,4.40
2023-03-15T20:35:46.076Z,4.30
2023-03-15T20:38:16.985Z,4.40
2023-03-15T20:40:46.673Z,4.30
2023-03-15T20:43:15.451Z,4.30
2023-03-15T20:45:44.361Z,4.20
2023-03-15T20:48:13.816Z,4.20
2023-03-15T20:50:44.439Z,4.20
2023-03-15T20:53:14.933Z,4.10
2023-03-15T20:55:46.491Z,4.00
2023-03-15T20:58:15.550Z,4.00
2023-03-15T21:00:45.504Z,4.00
2023-03-15T21:03:15.583Z,4.00
2023-03-15T21:05:46.270Z,4.00
2023-03-15T21:08:18.650Z,4.00
2023-03-15T21:10:49.222Z,3.90
2023-03-15T21:13:21.344Z,3.90
2023-03-15T21:15:50.947Z,3.90
2023-03-15T21:18:22.014Z,3.90
2023-03-15T21:20:58.563Z,3.90
2023-03-15T21:23:31.274Z,3.90
2023-03-15T21:26:03.934Z,4.00
2023-03-15T21:28:33.824Z,4.00
2023-03-15T21:31:02.537Z,4.00
2023-03-15T21:33:31.950Z,4.00
2023-03-15T21:36:01.542Z,4.00
2023-03-15T21:38:32.284Z,4.00
2023-03-15T21:41:09.394Z,4.00
2023-03-15T21:43:39.168Z,4.00
2023-03-15T21:46:10.129Z,4.00
2023-03-15T21:48:39.068Z,3.90
2023-03-15T21:51:08.686Z,3.90
2023-03-15T21:53:38.943Z,4.00
2023-03-15T21:56:10.831Z,4.00
2023-03-15T21:58:39.384Z,4.00
2023-03-15T22:01:10.060Z,4.00
2023-03-15T22:03:39.541Z,3.90
2023-03-15T22:06:08.869Z,3.90
2023-03-15T22:08:37.556Z,3.80
2023-03-15T22:11:06.906Z,3.80
2023-03-15T22:13:38.215Z,3.80
2023-03-15T22:16:07.423Z,3.80
2023-03-15T22:18:35.811Z,3.70
2023-03-15T22:21:05.078Z,3.70
2023-03-15T22:23:36.122Z,3.60
2023-03-15T22:26:04.697Z,3.50
2023-03-15T22:28:33.360Z,3.50
2023-03-15T22:31:04.350Z,3.40
2023-03-15T22:33:33.288Z,3.40
2023-03-15T22:36:03.520Z,3.30
2023-03-15T22:38:38.060Z,3.20
2023-03-15T22:41:09.523Z,3.20
2023-03-15T22:43:41.079Z,3.10
2023-03-15T22:46:12.084Z,3.10
2023-03-15T22:48:40.700Z,3.10
2023-03-15T22:51:11.014Z,3.10
2023-03-15T22:53:39.821Z,3.10
2023-03-15T22:56:09.103Z,3.10
2023-03-15T22:58:38.437Z,3.00
2023-03-15T23:01:07.360Z,3.00
2023-03-15T23:03:37.454Z,3.00
2023-03-15T23:06:06.667Z,3.00
2023-03-15T23:08:35.395Z,3.00
2023-03-15T23:11:04.430Z,2.90
2023-03-15T23:13:32.792Z,2.90
2023-03-15T23:16:04.131Z,2.90
2023-03-15T23:18:34.488Z,2.80
2023-03-15T23:21:09.987Z,2.80
2023-03-15T23:23:39.116Z,2.80
2023-03-15T23:26:09.240Z,2.80
2023-03-15T23:28:38.252Z,2.70
2023-03-15T23:31:09.316Z,2.70
2023-03-15T23:33:39.592Z,2.70
2023-03-15T23:36:11.246Z,2.70
2023-03-15T23:38:40.022Z,2.60
2023-03-15T23:41:08.854Z,2.60
2023-03-15T23:43:37.646Z,2.50
2023-03-15T23:46:07.299Z,2.50
2023-03-15T23:48:36.333Z,2.40
2023-03-15T23:51:05.478Z,2.40
2023-03-15T23:53:36.327Z,2.40
2023-03-15T23:56:06.043Z,2.40
2023-03-15T23:58:34.613Z,2.40
